Dike, Texas
Current Conditions -  °F | °C
As of 6:15 AM on Thursday 18 Dec 2014 (Local Time) from KSLR Reporting Station
Overcast Overcast  
Wind Chill: 39°   Ceiling: 500
Heat Index: 42°   Visibility: 7mi
Dew Point: 41°   Wind: 5mph
Humidity: 98%   Direction: 110°ESE
Pressure: 30.16"   Gusts: NA
Location:  33.24°N, 95.48°W
Report Text: KSLR 181215Z AUTO 11004KT 7SM OVC005 05/05 A3016 RMK AO2 T00530050
Loading
Personal Weather Stations






























Interactive Weather Map New forecast layout! Learn more

10-Day Weather Forecast

Advertisements
Track Severe Weather on mobile